Terminal Aerodrome Forecast
Issued by NWS

Home | Current Version | Previous Version | Text Only | Print | Product List | Glossary On
Versions: 1 2 3 4 5 6 7 8 9 10 11 12 13 14 15
000
FTUS46 KLOX 012329
TAFWJF
TAF
KWJF 012329Z 0200/0224 23012G18KT P6SM VCSH SCT080 BKN150
     FM020700 25006KT P6SM SCT150
     FM021200 VRB05KT P6SM SCT150
     FM022000 25015G25KT P6SM SCT150=

USA.gov is the U.S. government's official web portal to all federal, state and local government web resources and services.